To NAV CANADA Home Page Login to a new session Search on AWWS site Feedback and Comments Disclaimer Vers la page française équivalente Tips FAQ What's new on the site To the Forecasts and Observations / NOTAM section To "File a Flight Plan" website Publications and other links Update of the User's profile FIC Telephone Numbers My Weather Data Folder Route Weather Data Regional Weather Data Local Weather Data To the Forecasts and Observations / NOTAM section
Request Generated 06/26/2017 at 22:30:23 UTC . Weather information available at that time is displayed.

METAR/TAF

BURWASH/YT    (show WxCam)

METAR CYDB 262200Z 10003KT 030V160 25SM SCT045CB SCT110 18/06 A2982
RMK CB3AC1 SH DIST W + NW SLP123 DENSITY ALT 3700FT=
METAR CYDB 262100Z 10005KT 050V130 30SM SCT050TCU SCT250 17/06 A2984
RMK TCU3CI1 SLP129 DENSITY ALT 3600FT=
METAR CYDB 262000Z 14003KT 110V230 25SM FEW045TCU SCT085 BKN240 15/08
A2987 RMK TCU2AC2CI2 SLP137 DENSITY ALT 3400FT=

TAF CYDB 261738Z 2618/2706 VRB03KT P6SM FEW050 BKN100
RMK NXT FCST BY 270000Z=
Your time UTC time
Weather data provided by Environment Canada and NAV CANADA